Boca Raton, FL (33428)

3:55 AM EDT on September 03, 2015 (GMT -0400)
Boca (C6162) | | Change Station
CLOSE
Current Station
Personal Weather Station
Location: Boca Raton, FL
Elevation: 12 ft
Nearby Weather Stations

Elev 12 ft 26.34 °N, 80.21 °W | Updated 4 seconds ago

Partly Cloudy
Partly Cloudy
79.4 °F
Feels Like 84 °F
N
0.0
Wind Variable Wind from SE
Gusts 0.0 mph

Today
High -- | Low -- °F
--% Chance of Precip.
Yesterday
High -- | Low -- °F
Precip. -- in
7:01 AM 7:38 PM
Waning Gibbous, 72% visible
Pressure 29.97 in
Visibility 10.0 miles
Clouds Clear
Heat Index 84 °F
Dew Point 77 °F
Humidity 92%
Rainfall 0.00 in
Snow Depth Not available.
UV 0.0 out of 12
Pollen 4.70 out of 12
Air Quality Not available.
Flu Activity Not available.
METAR KPMP 030753Z AUTO 00000KT 10SM CLR 27/24 A2996 RMK AO2 SLP147 T02720244
Pressure 29.97 in
Visibility 10.0 miles
Clouds Clear
Heat Index 84 °F
Dew Point 77 °F
Humidity 92%
Rainfall 0.00 in
Snow Depth Not available.
UV 0.0 out of 12
Pollen 4.70 out of 12
Air Quality Not available.
Flu Activity Not available.
METAR KPMP 030753Z AUTO 00000KT 10SM CLR 27/24 A2996 RMK AO2 SLP147 T02720244

10-Day Weather Forecast

×

Almanac

Astronomy

Sep. 03, 2015 Rise Set
Actual Time
Civil Twilight
Nautical Twilight
Astronomical Twilight
Moon
Length of Visible Light
Length of Day
Tomorrow will be .
, % of the Moon is Illuminated

Today's Extremes

State Highs State Lows

Community

WunderPhotos

Upload Photos

1,851,919 photos uploaded!

WunderBlogs® & News

Nearby

Air Quality

  Air Quality AQ Index Pollutant
Not available.

Snow Depth

Station Depth Elevation

Earthquake Activity

City Distance Mag. Time & Date
Minimum magnitude displayed is 2.5.

Coastal Water Temperatures

Place Temperature

Stations

Nearby Weather Stations

Station Location Temp. Windchill Dew Point Humidity Wind Precip. Elev Updated Type